Weather observations for the past three days for
Jacksonville, Cherokee County Airport
Imperial (Metric)
Date Time (cdt) Wind (mph) Vis. (mi.) Weather Sky Cond. Temperature (ºF) Relative Humidity Wind Chill (°F) Heat Index (°F) Pressure Precipitation (in)
Air Dwpt 6 hour altimeter (in) sea level (mb) 1 hr 3 hr 6 hr
Max. Min.
07 15:15 E 5 9.00 A Few Clouds FEW190 65.3 54.7 69% 29.99 0.0
07 14:55 N 5 9.00 Partly Cloudy FEW200 SCT220 65.8 54.3 67% 30 0.0
07 14:35 Vrbl 6 9.00 Partly Cloudy SCT210 SCT340 66.6 54.9 66% 30.01 0.0
07 14:15 N 9 9.00 Mostly Cloudy FEW200 SCT250 SCT300 BKN340 65.7 54 66% 30 0.0
07 13:55 NE 8 9.00 Mostly Cloudy FEW210 SCT300 SCT330 BKN370 65.8 54.3 67% 30 0.0
07 13:35 N 9 9.00 Partly Cloudy FEW210 SCT250 SCT320 SCT350 65.8 54.3 67% 30.01 0.0
07 13:15 N 9 9.00 Partly Cloudy FEW220 SCT340 66.4 53.8 64% 30.02 0.0
07 12:55 NE 10 8.00 Partly Cloudy FEW230 SCT340 SCT370 65.7 53.2 65.8 52.2 64% 30.03 0.0
07 12:35 N 10 8.00 Partly Cloudy FEW240 SCT310 SCT340 65.1 52.9 65% 30.03 0.0
07 12:15 N 10 9.00 A Few Clouds FEW240 65.7 53.2 64% 30.03 0.0
07 11:55 NE 13 9.00 Partly Cloudy SCT240 63.9 52.3 66% 30.02 0.0
07 11:35 NE 13 8.00 Mostly Cloudy SCT240 SCT290 BKN370 64.9 52.9 65% 30.04 0.0
07 11:15 NE 14 9.00 A Few Clouds FEW230 64 52.7 67% 30.03 0.0
07 10:55 NE 9 9.00 Partly Cloudy FEW200 SCT230 61.2 52 72% 30.05 0.0
07 10:35 NE 10 10.00 Partly Cloudy FEW180 SCT360 59 51.3 76% 30.05 0.0
07 10:15 NE 10 10.00 Partly Cloudy FEW170 SCT370 57.6 50.9 79% 30.05 0.0
07 09:55 NE 9 10.00 Mostly Cloudy SCT170 SCT210 BKN380 56.8 51.8 83% 30.06 0.0
07 09:35 N 7 10.00 Partly Cloudy SCT170 55.9 51.4 85% 30.06 0.0
07 09:15 N 8 10.00 Partly Cloudy SCT170 SCT220 54.9 51.3 88% 30.05 0.0
07 08:55 NE 10 10.00 Partly Cloudy SCT170 54.5 50.9 88% 30.07 0.0
07 08:35 N 7 10.00 Fair CLR 54 51.1 90% 30.07 0.0
07 08:15 N 6 9.00 A Few Clouds FEW350 53.4 50.7 91% 30.06 0.0
07 07:55 N 10 9.00 Partly Cloudy SCT210 52.7 50.4 92% 30.05 0.0
07 07:35 N 8 9.00 Mostly Cloudy BKN200 52.3 50.4 93% 30.04 0.0
07 07:15 N 8 9.00 Partly Cloudy SCT200 52.3 50.4 93% 30.04 0.0
07 06:55 N 7 9.00 Fair CLR 52 50.4 54.7 52 94% 30.04 0.0
07 06:35 N 7 10.00 Fair CLR 52.2 50.4 94% 30.03 0.0
07 06:15 N 6 10.00 Fair CLR 52.3 50.4 93% 30.01 0.0
07 05:55 Vrbl 5 10.00 A Few Clouds FEW022 52.7 50.5 92% 30.01 0.0
07 05:35 NE 7 10.00 A Few Clouds FEW021 53.1 50.5 91% 29.99 0.0
07 05:15 NE 7 10.00 Mostly Cloudy BKN020 53.4 50.2 89% 29.97 0.0
07 04:55 NE 9 10.00 Overcast OVC021 53.6 50.7 90% 29.95 0.0
07 04:35 NE 12 10.00 Overcast OVC022 53.6 50.9 91% 29.96 0.0
07 04:15 NE 13 10.00 Overcast OVC021 53.6 51.1 91% 29.96 0.0
07 03:55 NE 8 10.00 Partly Cloudy SCT022 53.4 51.8 94% 29.96 0.0
07 03:35 NE 12 10.00 A Few Clouds FEW022 53.8 52 94% 29.96 0.0
07 03:15 NE 9 10.00 Partly Cloudy FEW010 SCT023 53.8 52.9 97% 29.96 0.0
07 02:55 NE 9 10.00 Overcast OVC008 54 53.4 98% 29.96 0.0
07 02:35 NE 12 10.00 Overcast OVC007 54 53.8 99% 29.97 0.0
07 02:15 NE 9 G 18 10.00 Overcast OVC007 54.1 53.8 99% 29.97 0.0
07 01:55 NE 10 10.00 Overcast OVC007 54.3 54 99% 29.99 0.0
07 01:35 NE 9 10.00 Overcast OVC007 54.5 54.3 99% 29.98 0.0
07 01:15 N 9 10.00 Overcast OVC007 54.5 54.1 99% 29.98 0.0
07 00:55 N 12 G 18 10.00 Overcast OVC006 54.7 54.3 60.6 54.7 99% 29.99 0.0
07 00:35 NE 10 10.00 Overcast OVC006 54.9 54.9 100% 29.99 0.0
07 00:15 N 13 G 18 10.00 Overcast OVC004 55 55 100% 29.98 0.0
06 23:55 NE 9 G 20 10.00 Overcast OVC004 55.8 55.8 100% 29.98 0.0
06 23:35 NE 7 10.00 Overcast OVC004 56.1 56.1 100% 29.98 0.0
06 23:15 N 10 10.00 Overcast OVC004 57.4 57.4 100% 29.97 0.0
06 22:55 NE 12 10.00 Overcast OVC005 57.7 57.7 100% 29.96 0.0
06 22:35 NE 9 10.00 Overcast BKN003 OVC010 57.7 57.7 100% 29.96 0.0
06 22:15 N 12 6.00 Fog/Mist OVC003 58.8 58.8 100% 29.95 0.0
06 21:55 NE 9 9.00 Overcast OVC004 58.8 58.8 100% 29.93 0.0
06 21:35 NE 7 10.00 Overcast OVC003 59.4 59.4 100% 29.93 0.0
06 21:15 NE 13 G 17 10.00 Overcast OVC003 59.7 59.7 100% 29.9 0.0
06 20:55 NE 9 9.00 Overcast OVC003 59.9 59.9 100% 29.9 0.0
06 20:35 N 8 10.00 Overcast OVC004 60.1 60.1 100% 29.89 0.0
06 20:15 N 7 10.00 Overcast OVC004 60.3 60.3 100% 29.88 0.0
06 19:55 N 8 10.00 Overcast OVC005 60.3 60.3 100% 29.87 0.0
06 19:35 N 9 G 17 10.00 Overcast OVC005 60.4 60.4 100% 29.87 0.0
06 19:15 N 10 10.00 Overcast OVC005 60.6 60.6 100% 29.87 0.0
06 18:55 N 7 10.00 Overcast OVC006 60.8 60.4 71.4 60.8 99% 29.87 0.0
06 18:35 N 9 10.00 Overcast OVC006 61.2 60.6 98% 29.87 0.0
06 18:15 N 9 10.00 Overcast OVC007 61.9 60.8 96% 29.86 0.0
06 17:55 N 7 10.00 Overcast OVC010 63.1 61.3 94% 29.86 0.0
06 17:35 N 8 10.00 Overcast OVC010 63.3 61.3 93% 29.85 0.0
06 17:15 N 8 10.00 Overcast OVC012 64.8 62.1 91% 29.85 0.0
06 16:55 Vrbl 7 10.00 Overcast OVC015 66.2 62.4 88% 29.84 0.0
06 16:35 N 7 10.00 Overcast OVC015 67.3 63 86% 29.84 0.0
06 16:15 N 6 10.00 Overcast OVC015 67.5 62.8 85% 29.84 0.0
06 15:55 NE 7 10.00 Overcast OVC015 68.5 63.3 84% 29.83 0.0
06 15:35 N 8 10.00 Overcast OVC016 67.6 63 85% 29.84 0.0
06 15:15 NW 7 10.00 Overcast OVC016 69.1 64 84% 29.83 0.0
06 14:55 N 10 10.00 Overcast OVC014 71.2 65.3 82% 29.83 0.0
06 14:35 N 8 10.00 Mostly Cloudy BKN013 BKN065 71.1 65.7 83% 29.83 0.0
06 14:15 N 6 10.00 Partly Cloudy FEW008 SCT300 71.1 65.1 82% 29.83 0.0
06 13:55 E 3 10.00 Overcast BKN009 OVC350 68.9 63.7 84% 29.82 0.0
06 13:35 E 8 10.00 Overcast OVC009 66.9 62.8 87% 29.83 0.0
06 13:15 E 6 10.00 Overcast OVC009 64.4 61.2 89% 29.82 0.0
06 12:55 Vrbl 6 10.00 Overcast OVC009 63 60.3 75.7 61.7 91% 29.88 0.0
06 12:35 N 10 10.00 Overcast OVC009 62.1 59.7 92% 29.88 0.0
06 12:15 Vrbl 7 10.00 Overcast OVC009 62.2 60.3 93% 29.91 0.0
06 11:55 N 7 10.00 Overcast OVC009 62.6 60.6 93% 29.92 0.0
06 11:35 N 8 10.00 Overcast OVC009 63.1 61.5 94% 29.91 0.0
06 11:15 NW 6 10.00 Overcast OVC008 64.4 62.4 93% 29.9 0.0
06 10:55 N 7 10.00 Overcast OVC008 65.3 63.1 93% 29.87 0.0
06 10:35 Vrbl 5 10.00 Overcast OVC007 66.2 64.2 93% 29.86 0.0
06 10:15 N 9 10.00 Overcast OVC007 66 64.6 95% 29.85 0.0
06 09:55 NW 8 8.00 Overcast OVC010 68.4 66.6 94% 29.84 0.0
06 09:35 SW 3 9.00 Overcast BKN007 OVC013 75.4 74.8 98% 73 29.82 0.0
06 09:15 S 5 8.00 Overcast BKN006 OVC012 74.1 74.1 100% 29.82 0.0
06 08:55 S 5 7.00 Overcast SCT004 OVC010 73 73 100% 29.82 0.0
06 08:35 S 5 6.00 Fog/Mist BKN004 BKN009 OVC017 72.9 72.9 100% 29.82 0.0
06 08:15 S 5 6.00 Fog/Mist OVC004 72.5 72.5 100% 29.82 0.0
06 07:55 SW 5 6.00 Fog/Mist OVC003 72.5 72.5 100% 29.82 0.0
06 07:35 S 3 6.00 Fog/Mist OVC003 72.3 72.3 100% 29.81 0.0
06 07:15 S 5 6.00 Fog/Mist OVC002 72.1 72.1 100% 29.81 0.0
06 06:55 SW 5 6.00 Fog/Mist OVC002 72.1 72.1 74.5 72 100% 29.8 0.0
06 06:35 S 7 5.00 Fog/Mist OVC002 72 72 100% 29.79 0.0
06 06:15 S 6 7.00 Overcast OVC002 72 72 100% 29.78 0.0
06 05:55 S 7 7.00 Overcast OVC002 72 72 100% 29.77 0.0
06 05:35 S 8 7.00 Overcast OVC003 72.1 72.1 100% 29.77 0.0
06 05:15 S 9 8.00 Overcast OVC004 72.3 72.3 100% 29.76 0.0
06 04:55 S 9 8.00 Overcast OVC004 72.7 72.7 100% 29.77 0.0
06 04:35 S 7 7.00 Overcast OVC005 73 73 100% 29.76 0.0
06 04:15 S 9 7.00 Overcast OVC006 73.2 73.2 100% 29.76 0.0
06 03:55 S 9 7.00 Overcast BKN008 OVC013 73.6 73.6 100% 29.76 0.0
06 03:35 S 9 7.00 Overcast BKN008 OVC013 73.8 73.8 100% 29.77 0.0
06 03:15 S 7 7.00 Overcast OVC009 73.8 73.8 100% 29.76 0.0
06 02:55 S 7 7.00 Overcast OVC012 73.8 73.8 100% 29.76 0.0
06 02:35 S 9 8.00 Overcast OVC013 73.8 73.4 99% 29.76 0.0
06 02:15 S 8 8.00 Overcast OVC013 74.1 73.8 99% 29.76 0.0
06 01:55 S 10 7.00 Overcast OVC013 74.3 73.9 99% 29.76 0.0
06 01:35 Vrbl 7 8.00 Overcast OVC013 74.3 73.9 99% 29.77 0.0
06 00:55 S 7 7.00 Overcast BKN010 OVC015 74.5 74.3 80.6 74.5 99% 29.77 0.0
06 00:35 S 6 8.00 Overcast OVC010 74.7 74.1 98% 29.77 0.0
06 00:15 S 6 8.00 Overcast OVC010 74.8 74.3 98% 29.77 0.0
05 23:55 SW 7 8.00 Partly Cloudy SCT012 75 74.1 97% 73 29.76 0.0
05 23:35 S 8 8.00 Fair CLR 75 74.1 97% 73 29.74 0.0
05 23:15 S 9 8.00 Fair CLR 75.2 74.1 96% 73 29.73 0.0
05 22:55 S 12 8.00 Fair CLR 75.4 73.4 94% 74 29.73 0.0
05 22:35 S 9 9.00 Fair CLR 75.7 73 91% 75 29.73 0.0
05 22:15 S 9 8.00 Fair CLR 76.5 72.7 88% 77 29.73 0.0
05 21:55 S 9 9.00 Fair CLR 77 72.7 87% 78 29.72 0.0
05 21:35 S 9 9.00 Partly Cloudy SCT050 77.7 72.7 85% 80 29.72 0.0
05 21:15 S 9 9.00 Overcast FEW036 OVC050 78.3 72.7 83% 81 29.72 0.0
05 20:55 S 7 9.00 Overcast OVC044 78.6 73 83% 82 29.72 0.0
05 20:35 S 8 9.00 Overcast OVC042 78.6 73 83% 82 29.71 0.0
05 20:15 S 7 8.00 Mostly Cloudy BKN042 78.6 73.2 84% 82 29.7 0.0
05 19:55 S 7 7.00 A Few Clouds FEW040 79 73.2 83% 82 29.68 0.0
05 19:35 S 7 7.00 Partly Cloudy SCT041 79.9 73.2 80% 84 29.68 0.0
05 19:15 S 9 7.00 Mostly Cloudy BKN041 80.6 73 78% 85 29.68 0.0
05 18:55 S 8 7.00 Mostly Cloudy BKN038 81 73.2 84.4 78.6 77% 86 29.68 0.0
05 18:35 S 12 G 16 7.00 Partly Cloudy SCT037 81.5 73.6 77% 87 29.67 0.0
05 18:15 S 9 7.00 Partly Cloudy SCT037 81.9 73.4 76% 87 29.67 0.0
05 17:55 S 9 9.00 A Few Clouds FEW035 82.4 73.2 74% 88 29.67 0.0
05 17:35 S 10 G 17 8.00 Fair CLR 82.2 72.9 73% 88 29.67 0.0
05 17:15 SW 10 G 21 8.00 Partly Cloudy SCT033 82.8 72.7 72% 88 29.67 0.0
05 16:55 S 10 G 20 8.00 Mostly Cloudy BKN033 83.5 73.4 72% 90 29.68 0.0
05 16:35 S 9 8.00 Mostly Cloudy BKN035 83.1 73 72% 89 29.68 0.0
05 16:15 S 13 G 21 8.00 Mostly Cloudy BKN031 BKN040 83.8 73 70% 90 29.69 0.0
05 15:55 SW 15 G 22 8.00 Partly Cloudy SCT031 83.8 72.7 69% 90 29.69 0.0
05 15:35 S 10 G 23 9.00 Partly Cloudy SCT028 84 73.4 71% 91 29.69 0.0
05 15:15 S 14 G 23 8.00 Mostly Cloudy BKN028 82.8 72.9 72% 88 29.7 0.0
05 14:55 SW 14 G 22 8.00 Partly Cloudy SCT027 82.4 73.2 74% 88 29.7 0.0
05 14:35 S 15 G 23 9.00 Mostly Cloudy BKN028 BKN270 81.9 72.7 74% 87 29.71 0.0
05 14:15 S 9 G 22 8.00 Mostly Cloudy BKN026 BKN031 BKN270 80.8 72.9 77% 85 29.71 0.0
05 13:55 SW 16 G 24 8.00 Mostly Cloudy BKN024 BKN029 80.6 72 75% 85 29.72 0.0
05 13:35 S 12 G 26 9.00 Mostly Cloudy SCT022 BKN027 BKN310 80.6 72.9 77% 85 29.72 0.0
05 13:15 S 18 G 28 9.00 Overcast BKN022 BKN029 OVC310 79.9 72.3 78% 84 29.73 0.0
05 12:55 SW 10 G 20 9.00 Overcast SCT020 OVC028 78.8 72.3 78.8 68.2 81% 82 29.74 0.0
05 12:35 SW 15 G 22 9.00 Overcast BKN023 OVC028 77.7 72.1 83% 80 29.74 0.0
05 12:15 SW 10 G 17 10.00 Overcast BKN019 OVC025 77 71.8 84% 78 29.74 0.0
05 11:55 S 10 G 22 10.00 Overcast BKN016 OVC021 75.7 71.2 86% 76 29.74 0.0
05 11:35 SW 15 G 24 10.00 Overcast OVC017 75.6 70.9 85% 76 29.74 0.0
05 11:15 S 13 G 22 10.00 Overcast OVC015 75 71.1 88% 75 29.74 0.0
05 10:55 S 14 G 21 10.00 Overcast OVC013 73.9 70.7 90% 29.74 0.0
05 10:35 S 9 G 17 6.00 Fog/Mist OVC013 72.7 70.2 92% 29.75 0.0
05 10:15 S 8 8.00 Overcast OVC012 71.6 69.8 94% 29.76 0.0
05 09:55 S 9 8.00 Overcast OVC012 70.5 69.3 96% 29.74 0.0
05 09:35 S 9 8.00 Overcast OVC011 70.5 69.1 95% 29.74 0.0
05 09:15 SW 9 8.00 Overcast OVC011 69.8 68.7 96% 29.75 0.0
05 08:55 S 9 8.00 Overcast OVC013 69.6 68.5 96% 29.74 0.0
05 08:35 S 9 9.00 Overcast BKN013 OVC019 69.4 68.2 96% 29.74 0.0
05 08:15 S 9 8.00 Overcast OVC010 68.7 68 98% 29.74 0.0
05 07:55 S 9 9.00 Overcast OVC010 68.5 67.6 97% 29.74 0.0
05 07:35 S 9 9.00 Overcast OVC011 68.5 67.6 97% 29.73 0.0
05 07:15 S 12 G 18 9.00 Overcast OVC011 68.4 67.5 97% 29.73 0.0
05 06:55 S 10 G 20 9.00 Overcast OVC011 68 67.1 68 66.2 97% 29.71 0.0
05 06:35 S 10 G 18 10.00 Overcast OVC011 68 67.1 97% 29.72 0.0
05 06:15 S 12 G 20 9.00 Overcast OVC010 68 66.9 96% 29.72 0.0
05 05:55 S 13 10.00 Overcast OVC012 67.8 66.6 96% 29.72 0.0
05 05:35 S 15 G 24 10.00 Overcast OVC011 67.6 66.4 96% 29.71 0.0
05 05:15 S 13 G 18 10.00 Overcast OVC011 67.3 66.2 96% 29.71 0.0
05 04:55 S 12 G 20 10.00 Overcast OVC011 67.1 65.8 96% 29.71 0.0
05 04:35 S 12 G 20 10.00 Overcast OVC012 66.9 65.7 96% 29.71 0.0
05 04:15 S 14 G 18 10.00 Overcast OVC013 66.9 65.7 96% 29.72 0.0
05 03:55 S 10 G 17 10.00 Overcast OVC014 66.7 65.5 96% 29.73 0.0
05 03:35 S 10 10.00 Mostly Cloudy BKN016 66.6 65.3 96% 29.74 0.0
05 03:15 S 9 10.00 A Few Clouds FEW016 66.2 65.1 96% 29.74 0.0
05 02:55 S 12 10.00 A Few Clouds FEW023 66.4 65.1 96% 29.74 0.0
05 02:35 S 12 G 20 10.00 Partly Cloudy SCT023 66.6 65.1 95% 29.75 0.0
05 02:15 S 10 G 18 10.00 Mostly Cloudy BKN023 66.7 64.9 94% 29.75 0.0
05 01:55 S 9 10.00 A Few Clouds FEW023 66.7 65.1 95% 29.76 0.0
05 01:35 S 10 10.00 Fair CLR 66.9 64.8 93% 29.77 0.0
05 01:15 S 12 10.00 Fair CLR 67.1 64.8 92% 29.77 0.0
05 00:55 S 12 10.00 Fair CLR 67.5 64.6 76.8 67.5 91% 29.77 0.0
05 00:35 S 9 G 18 10.00 Fair CLR 67.6 64.4 89% 29.77 0.0
05 00:15 S 9 G 16 10.00 A Few Clouds FEW240 68 64.2 88% 29.78 0.0
04 23:55 S 9 10.00 Mostly Cloudy BKN230 68.4 64 86% 29.78 0.0
04 23:35 S 9 10.00 Fair CLR 68.5 64.2 86% 29.77 0.0
04 23:15 S 10 10.00 Fair CLR 68.7 64 85% 29.78 0.0
04 22:55 S 10 10.00 Fair CLR 69.4 63.9 83% 29.78 0.0
04 22:35 S 13 10.00 Fair CLR 70 63.9 81% 29.78 0.0
04 22:15 S 13 G 21 10.00 Fair CLR 70.2 64 81% 29.78 0.0
04 21:55 S 12 G 18 10.00 Fair CLR 70.5 63.7 79% 29.77 0.0
04 21:35 S 8 9.00 Fair CLR 70.2 63 78% 29.78 0.0
04 21:15 S 10 9.00 Fair CLR 70.9 62.2 74% 29.78 0.0
04 20:55 S 10 9.00 Fair CLR 71.8 61.5 70% 29.77 0.0
04 20:35 S 7 9.00 Fair CLR 72 61.3 69% 29.77 0.0
04 20:15 S 6 8.00 Fair CLR 72.9 60.8 66% 29.76 0.0
04 19:55 S 7 8.00 Fair CLR 74.3 60.1 61% 29.76 0.0
04 19:35 S 9 G 17 7.00 Fair CLR 75.2 59.7 59% 78 29.76 0.0
04 19:15 S 7 7.00 Fair CLR 75.9 59.4 57% 78 29.77 0.0
04 18:55 S 9 7.00 Fair CLR 77 58.8 80.1 75.6 54% 79 29.77 0.0
04 18:35 S 13 8.00 Fair CLR 77.7 58.5 52% 79 29.77 0.0
04 18:15 S 10 8.00 Fair CLR 78.3 58.1 50% 79 29.78 0.0
04 17:55 S 14 8.00 Fair CLR 78.3 57.7 49% 79 29.79 0.0
04 17:35 S 12 G 17 8.00 Fair CLR 79.2 57.9 48% 80 29.79 0.0
04 17:15 S 9 8.00 Fair CLR 79.9 58.1 47% 80 29.8 0.0
04 16:55 S 14 G 22 8.00 Fair CLR 79.5 56.5 45% 80 29.81 0.0
04 16:35 SW 8 8.00 Fair CLR 79.9 56.8 45% 80 29.82 0.0
04 16:15 S 13 G 20 8.00 Fair CLR 79.5 55.8 44% 80 29.82 0.0
04 15:55 Vrbl 7 8.00 A Few Clouds FEW370 78.6 55.2 45% 79 29.84 0.0
Date Time (cdt) Wind (mph) Vis. (mi.) Weather Sky Cond. Air Dwpt Max. Min. Relative Humidity Wind Chill (°F) Heat Index (°F) altimeter (in) sea level (mb) 1 hr 3 hr 6 hr
6 hour
Temperature (ºF) Pressure Precipitation (in)